Time;durP1;ratioP1;P1;durP2;ratioP2;P2;SDS_P1;SDS_P2;PMS_P1;PMS_P2;Temp;Humidity;BMP_temperature;BMP_pressure;BME280_temperature;BME280_humidity;BME280_pressure;Samples;Min_cycle;Max_cycle;Signal;HPM_P1;HPM_P2
2022/05/13 00:00:27;;;;;;;18.65;3.63;;;18.30;99.90;;;;;;6307038;22;20082;-66
2022/05/13 00:02:54;;;;;;;13.82;2.75;;;18.40;99.90;;;;;;6307035;22;20003;-66
2022/05/13 00:05:22;;;;;;;15.88;2.78;;;18.40;99.90;;;;;;6306808;22;19999;-67
2022/05/13 00:07:49;;;;;;;15.25;2.80;;;18.40;99.90;;;;;;6306896;22;20023;-67
2022/05/13 00:10:16;;;;;;;14.32;2.63;;;18.40;99.90;;;;;;6306850;22;20322;-66
2022/05/13 00:12:44;;;;;;;11.63;2.78;;;18.40;99.90;;;;;;6306446;22;19995;-66
2022/05/13 00:15:14;;;;;;;10.27;2.65;;;18.40;99.90;;;;;;6306313;22;20007;-66
2022/05/13 00:17:40;;;;;;;;;;;18.40;99.90;;;;;;6307100;22;20338;-66
2022/05/13 00:20:09;;;;;;;15.38;2.83;;;18.40;99.90;;;;;;6306827;22;19899;-66
2022/05/13 00:22:46;;;;;;;10.00;2.60;;;18.40;99.90;;;;;;6306300;22;20003;-66
2022/05/13 00:25:15;;;;;;;13.13;2.60;;;18.40;99.90;;;;;;6280518;22;20006;-67
2022/05/13 00:27:42;;;;;;;15.35;2.70;;;18.40;99.90;;;;;;6306714;22;20445;-66
2022/05/13 00:30:10;;;;;;;16.67;2.50;;;18.40;99.90;;;;;;6307026;22;20052;-66
2022/05/13 00:32:37;;;;;;;16.42;3.10;;;18.50;99.90;;;;;;6306961;22;20018;-67
2022/05/13 00:35:06;;;;;;;12.10;2.72;;;18.50;99.90;;;;;;6279544;22;20076;-67
2022/05/13 00:37:34;;;;;;;10.98;3.00;;;18.40;99.90;;;;;;6306393;22;20007;-67
2022/05/13 00:40:04;;;;;;;12.95;2.70;;;18.40;99.90;;;;;;6306502;22;19995;-66
2022/05/13 00:42:31;;;;;;;20.33;3.17;;;18.50;99.90;;;;;;6306867;22;20011;-66
2022/05/13 00:44:58;;;;;;;17.65;3.55;;;18.50;99.90;;;;;;6305797;22;20010;-66
2022/05/13 00:47:26;;;;;;;14.38;2.97;;;18.40;99.90;;;;;;6306348;22;20078;-66
2022/05/13 00:49:57;;;;;;;17.48;3.30;;;18.40;99.90;;;;;;6279511;22;20376;-66
2022/05/13 00:52:24;;;;;;;16.52;3.40;;;18.40;99.90;;;;;;6254660;22;20478;-66
2022/05/13 00:54:51;;;;;;;11.05;2.97;;;18.40;99.90;;;;;;6279644;22;20030;-67
2022/05/13 00:57:20;;;;;;;16.20;3.33;;;18.40;99.90;;;;;;6306214;22;20003;-67
2022/05/13 00:59:47;;;;;;;17.42;3.83;;;18.40;99.90;;;;;;6254198;22;20061;-67
2022/05/13 01:02:15;;;;;;;18.77;3.50;;;18.40;99.90;;;;;;6254187;22;20407;-66
2022/05/13 01:04:42;;;;;;;17.27;3.38;;;18.40;99.90;;;;;;6306457;22;20007;-66
2022/05/13 01:07:15;;;;;;;17.00;4.25;;;18.40;99.90;;;;;;6279380;22;20144;-67
2022/05/13 01:09:47;;;;;;;22.80;4.80;;;18.40;99.90;;;;;;6254714;22;20031;-67
2022/05/13 01:12:18;;;;;;;21.52;3.60;;;18.50;99.90;;;;;;6254508;22;20373;-66
2022/05/13 01:14:54;;;;;;;15.50;2.83;;;18.50;99.90;;;;;;6254485;22;20078;-66
2022/05/13 01:20:20;;;;;;;16.65;2.50;;;18.50;99.90;;;;;;6306251;22;20010;-66
2022/05/13 01:22:50;;;;;;;18.30;2.90;;;18.50;99.90;;;;;;6306279;22;20053;-66
2022/05/13 01:25:20;;;;;;;9.75;2.42;;;18.60;99.90;;;;;;6305928;22;20000;-66
2022/05/13 01:27:47;;;;;;;12.65;2.75;;;18.60;99.90;;;;;;6305776;22;20380;-67
2022/05/13 01:30:26;;;;;;;23.63;3.10;;;18.60;99.90;;;;;;6279144;22;20014;-67
2022/05/13 01:32:54;;;;;;;18.17;3.08;;;18.60;99.90;;;;;;6280859;22;20371;-66
2022/05/13 01:35:21;;;;;;;13.10;2.88;;;18.60;99.90;;;;;;6305433;22;20011;-66
2022/05/13 01:37:49;;;;;;;16.48;2.92;;;18.60;99.90;;;;;;6253713;22;20316;-66
2022/05/13 01:40:16;;;;;;;14.25;2.80;;;18.60;99.90;;;;;;6305921;22;20003;-66
2022/05/13 01:42:43;;;;;;;16.30;2.80;;;18.70;99.90;;;;;;6253794;22;19999;-67
2022/05/13 01:45:11;;;;;;;16.70;2.78;;;18.70;99.90;;;;;;6305917;22;20023;-67
2022/05/13 01:47:38;;;;;;;16.58;2.70;;;18.70;99.90;;;;;;6305701;22;20015;-66
2022/05/13 01:50:06;;;;;;;8.77;2.72;;;18.70;99.90;;;;;;6305995;22;19999;-67
2022/05/13 01:52:33;;;;;;;8.40;2.17;;;18.70;99.90;;;;;;6305802;22;20333;-67
2022/05/13 01:55:00;;;;;;;12.48;2.35;;;18.70;99.90;;;;;;6305843;22;19999;-66
2022/05/13 01:57:28;;;;;;;15.02;2.30;;;18.70;99.90;;;;;;6278377;22;20003;-67
2022/05/13 01:59:55;;;;;;;10.38;2.33;;;18.70;99.90;;;;;;6279134;22;20068;-66
2022/05/13 02:02:22;;;;;;;12.15;2.22;;;18.80;99.90;;;;;;6278800;22;20082;-66
2022/05/13 02:04:49;;;;;;;14.27;2.22;;;18.70;99.90;;;;;;6305156;22;20019;-66
2022/05/13 02:07:16;;;;;;;12.60;2.58;;;18.80;99.90;;;;;;6305654;22;20448;-66
2022/05/13 02:09:44;;;;;;;13.50;2.42;;;18.80;99.90;;;;;;6305832;22;20014;-65
2022/05/13 02:12:11;;;;;;;13.75;2.65;;;18.80;99.90;;;;;;6306185;22;19999;-66
2022/05/13 02:14:38;;;;;;;16.00;3.00;;;18.80;99.90;;;;;;6278626;22;20011;-66
2022/05/13 02:17:06;;;;;;;13.30;2.85;;;18.80;99.90;;;;;;6305807;22;19996;-66
2022/05/13 02:19:33;;;;;;;14.07;2.80;;;18.80;99.90;;;;;;6305851;22;20109;-66
2022/05/13 02:22:00;;;;;;;15.10;2.92;;;18.90;99.90;;;;;;6305530;22;20003;-66
2022/05/13 02:24:27;;;;;;;10.50;3.05;;;18.90;99.90;;;;;;6306136;22;19999;-66
2022/05/13 02:26:54;;;;;;;11.57;2.58;;;19.00;99.90;;;;;;6305762;22;20333;-66
2022/05/13 02:29:21;;;;;;;13.65;2.47;;;19.00;99.90;;;;;;6305571;22;20404;-66
2022/05/13 02:31:49;;;;;;;10.85;2.38;;;19.00;99.90;;;;;;6305396;22;20008;-66
2022/05/13 02:34:16;;;;;;;15.48;2.58;;;19.00;99.90;;;;;;6305494;22;20011;-66
2022/05/13 02:36:43;;;;;;;13.20;2.60;;;19.00;99.90;;;;;;6307506;22;20022;-66
2022/05/13 02:39:10;;;;;;;9.98;2.22;;;19.00;99.90;;;;;;6307781;22;20007;-66
2022/05/13 02:41:37;;;;;;;23.35;4.00;;;19.00;99.90;;;;;;6280852;22;20082;-66
2022/05/13 02:44:05;;;;;;;9.35;2.60;;;19.00;99.90;;;;;;6307945;22;20007;-66
2022/05/13 02:46:32;;;;;;;16.63;2.80;;;19.00;99.90;;;;;;6307328;22;20329;-66
2022/05/13 02:49:00;;;;;;;13.18;3.17;;;19.00;99.90;;;;;;6307757;22;20078;-66
2022/05/13 02:51:28;;;;;;;9.90;2.35;;;19.00;99.90;;;;;;6307669;22;19999;-65
2022/05/13 02:53:55;;;;;;;11.00;2.38;;;19.00;99.90;;;;;;6307659;22;20349;-65
2022/05/13 02:56:22;;;;;;;14.27;2.70;;;19.00;99.90;;;;;;6280708;22;20003;-66
2022/05/13 02:58:49;;;;;;;10.63;2.83;;;19.00;99.90;;;;;;6307423;22;20319;-66
2022/05/13 03:01:18;;;;;;;12.07;2.50;;;18.90;99.90;;;;;;6307469;22;20079;-66
2022/05/13 03:03:46;;;;;;;10.55;2.28;;;19.00;99.90;;;;;;6307515;22;20007;-66
2022/05/13 03:06:13;;;;;;;14.25;2.13;;;19.00;99.90;;;;;;6307309;22;20010;-66
2022/05/13 03:08:40;;;;;;;10.80;2.67;;;19.00;99.90;;;;;;6306613;22;20094;-66
2022/05/13 03:11:08;;;;;;;9.73;2.40;;;19.00;99.90;;;;;;6307692;22;20011;-66
2022/05/13 03:13:35;;;;;;;9.23;2.30;;;19.00;99.90;;;;;;6280432;22;20011;-66
2022/05/13 03:16:07;;;;;;;8.68;2.45;;;19.10;99.90;;;;;;6307221;22;19999;-66
2022/05/13 03:18:34;;;;;;;9.70;2.67;;;19.10;99.90;;;;;;6281022;22;20034;-66
2022/05/13 03:21:01;;;;;;;15.38;3.15;;;19.10;99.90;;;;;;6307353;22;20071;-66
2022/05/13 03:23:29;;;;;;;13.85;3.20;;;19.10;99.90;;;;;;6307700;22;20003;-66
2022/05/13 03:25:56;;;;;;;10.52;2.65;;;19.10;99.90;;;;;;6307347;22;20330;-66
2022/05/13 03:28:23;;;;;;;12.30;2.55;;;19.20;99.90;;;;;;6306997;22;20031;-66
2022/05/13 03:30:50;;;;;;;11.82;2.28;;;19.10;99.90;;;;;;6306897;22;20506;-66
2022/05/13 03:33:20;;;;;;;13.45;2.53;;;19.20;99.90;;;;;;6279626;22;20057;-65
2022/05/13 03:35:47;;;;;;;12.77;2.10;;;19.20;99.90;;;;;;6307098;22;20001;-66
2022/05/13 03:38:15;;;;;;;7.43;1.90;;;19.20;99.90;;;;;;6306954;22;20076;-66
2022/05/13 03:40:42;;;;;;;8.52;2.40;;;19.20;99.90;;;;;;6307179;22;20003;-66
2022/05/13 03:43:09;;;;;;;7.22;2.13;;;19.30;99.90;;;;;;6306653;22;20026;-66
2022/05/13 03:45:36;;;;;;;8.45;2.10;;;19.30;99.90;;;;;;6279589;22;20033;-66
2022/05/13 03:48:04;;;;;;;8.55;1.80;;;19.30;99.90;;;;;;6306523;22;20011;-66
2022/05/13 03:50:32;;;;;;;5.45;1.80;;;19.30;99.90;;;;;;6280253;22;20003;-66
2022/05/13 03:53:02;;;;;;;5.28;1.38;;;19.30;99.90;;;;;;6280180;22;20090;-66
2022/05/13 03:55:29;;;;;;;7.27;1.90;;;19.30;99.90;;;;;;6306868;22;19995;-66
2022/05/13 03:57:56;;;;;;;7.40;2.08;;;19.30;99.90;;;;;;6306476;22;20052;-66
2022/05/13 04:00:24;;;;;;;7.55;1.70;;;19.30;99.90;;;;;;6307118;22;20011;-66
2022/05/13 04:02:51;;;;;;;6.78;1.63;;;19.30;99.90;;;;;;6278962;22;20007;-66
2022/05/13 04:10:49;;;;;;;7.70;1.58;;;19.30;99.90;;;;;;6306994;22;20014;-66
2022/05/13 04:16:04;;;;;;;7.90;1.50;;;19.30;99.90;;;;;;6306892;22;20013;-66
2022/05/13 04:18:36;;;;;;;9.32;1.83;;;19.30;99.90;;;;;;6307151;22;20003;-66
2022/05/13 04:21:07;;;;;;;12.38;2.38;;;19.30;99.90;;;;;;6279266;22;20003;-66
2022/05/13 04:23:35;;;;;;;13.32;2.83;;;19.30;99.90;;;;;;6280436;22;20010;-66
2022/05/13 04:26:02;;;;;;;20.65;3.10;;;19.30;99.90;;;;;;6306890;22;20022;-66
2022/05/13 04:28:30;;;;;;;13.85;2.60;;;19.20;99.90;;;;;;6279372;22;20011;-66
2022/05/13 04:30:58;;;;;;;12.18;2.42;;;19.30;99.90;;;;;;6306719;22;20033;-66
2022/05/13 04:33:25;;;;;;;14.95;3.25;;;19.30;99.90;;;;;;6306360;22;20465;-66
2022/05/13 04:35:53;;;;;;;15.95;2.88;;;19.30;99.90;;;;;;6306513;22;20003;-65
2022/05/13 04:38:20;;;;;;;13.57;2.53;;;19.30;99.90;;;;;;6306623;22;20422;-66
2022/05/13 04:40:47;;;;;;;10.40;2.70;;;19.30;99.80;;;;;;6306546;22;19999;-66
2022/05/13 04:43:15;;;;;;;18.30;2.90;;;19.30;99.90;;;;;;6306752;22;20007;-66
2022/05/13 04:45:42;;;;;;;33.47;5.15;;;19.30;99.90;;;;;;6305556;22;20011;-66
2022/05/13 04:48:22;;;;;;;12.50;3.05;;;19.30;99.90;;;;;;6306243;22;20072;-66
2022/05/13 04:50:56;;;;;;;14.23;2.55;;;19.30;99.80;;;;;;6306379;22;20002;-65
2022/05/13 04:53:26;;;;;;;14.20;3.00;;;19.30;99.70;;;;;;6280402;22;20010;-65
2022/05/13 04:55:53;;;;;;;11.82;2.80;;;19.30;99.80;;;;;;6279771;22;19999;-65
2022/05/13 04:58:24;;;;;;;14.60;3.13;;;19.30;99.90;;;;;;6279023;22;20031;-65
2022/05/13 05:00:53;;;;;;;11.73;2.47;;;19.30;99.80;;;;;;6279830;22;19999;-66
2022/05/13 05:03:21;;;;;;;14.95;2.42;;;19.30;99.70;;;;;;6277789;22;20010;-65
2022/05/13 05:05:48;;;;;;;15.50;2.97;;;19.30;99.70;;;;;;6277972;22;20003;-65
2022/05/13 05:08:16;;;;;;;12.52;3.40;;;19.30;99.80;;;;;;6277733;22;20029;-65
2022/05/13 05:10:44;;;;;;;13.00;2.95;;;19.40;99.80;;;;;;6253159;22;20052;-66
2022/05/13 05:13:16;;;;;;;16.15;2.83;;;19.40;99.80;;;;;;6305474;22;20010;-66
2022/05/13 05:15:45;;;;;;;16.05;2.95;;;19.40;99.80;;;;;;6278759;22;20033;-65
2022/05/13 05:18:13;;;;;;;10.85;2.22;;;19.40;99.80;;;;;;6305769;22;19995;-65
2022/05/13 05:20:41;;;;;;;9.85;2.25;;;19.40;99.80;;;;;;6276668;22;20265;-65
2022/05/13 05:23:12;;;;;;;11.63;2.17;;;19.50;99.80;;;;;;6305636;22;19996;-64
2022/05/13 05:25:39;;;;;;;10.13;2.00;;;19.40;99.80;;;;;;6277401;22;20018;-65
2022/05/13 05:28:06;;;;;;;8.30;1.77;;;19.50;99.80;;;;;;6305560;22;20002;-65
2022/05/13 05:30:34;;;;;;;8.55;2.00;;;19.50;99.70;;;;;;6305544;22;20078;-65
2022/05/13 05:33:02;;;;;;;9.38;1.80;;;19.50;99.80;;;;;;6304180;22;20059;-65
2022/05/13 05:35:29;;;;;;;12.00;2.03;;;19.50;99.80;;;;;;6305203;22;20096;-64
2022/05/13 05:37:56;;;;;;;9.48;2.10;;;19.50;99.80;;;;;;6305610;22;19995;-65
2022/05/13 05:40:24;;;;;;;11.48;2.00;;;19.50;99.70;;;;;;6305566;22;20315;-66
2022/05/13 05:42:51;;;;;;;14.23;2.20;;;19.60;99.80;;;;;;6305529;22;20006;-66
2022/05/13 05:45:19;;;;;;;9.30;2.33;;;19.50;99.70;;;;;;6305881;22;20025;-65
2022/05/13 05:47:47;;;;;;;12.90;2.92;;;19.60;99.70;;;;;;6278899;22;20392;-65
2022/05/13 05:50:17;;;;;;;14.70;2.78;;;19.50;99.70;;;;;;6278378;22;20007;-66
2022/05/13 05:52:45;;;;;;;14.15;3.30;;;19.50;99.70;;;;;;6305104;22;19999;-65
2022/05/13 05:58:08;;;;;;;12.57;2.85;;;19.50;99.70;;;;;;6301656;22;20022;-64
2022/05/13 06:00:37;;;;;;;14.50;4.18;;;19.60;99.70;;;;;;6301625;22;20007;-65
2022/05/13 06:03:04;;;;;;;13.30;3.35;;;19.60;99.70;;;;;;6274882;22;20010;-64
2022/05/13 06:05:32;;;;;;;11.35;3.40;;;19.60;99.70;;;;;;6275235;22;20003;-64
2022/05/13 06:08:00;;;;;;;13.63;3.63;;;19.60;99.70;;;;;;6302211;22;20015;-64
2022/05/13 06:10:27;;;;;;;19.08;4.43;;;19.60;99.70;;;;;;6301502;22;20010;-64
2022/05/13 06:12:55;;;;;;;24.20;4.63;;;19.60;99.70;;;;;;6302074;22;20006;-65
2022/05/13 06:15:22;;;;;;;12.65;4.97;;;19.60;99.70;;;;;;6301997;22;20015;-64
2022/05/13 06:17:52;;;;;;;17.75;5.22;;;19.60;99.70;;;;;;6302182;22;20427;-64
2022/05/13 06:20:22;;;;;;;15.40;5.25;;;19.50;99.60;;;;;;6301543;22;20007;-64
2022/05/13 06:22:49;;;;;;;18.08;5.55;;;19.50;99.60;;;;;;6301835;22;20030;-65
2022/05/13 06:25:19;;;;;;;18.48;5.85;;;19.50;99.70;;;;;;6249749;22;20007;-64
2022/05/13 06:27:47;;;;;;;17.23;5.53;;;19.50;99.60;;;;;;6302030;22;20057;-64
2022/05/13 06:30:17;;;;;;;16.48;5.60;;;19.40;99.60;;;;;;6302251;22;20404;-63
2022/05/13 06:32:44;;;;;;;20.42;6.47;;;19.40;99.60;;;;;;6302059;22;20102;-64
2022/05/13 06:35:11;;;;;;;13.93;5.80;;;19.30;99.60;;;;;;6301610;22;20011;-64
2022/05/13 06:37:38;;;;;;;14.70;5.15;;;19.40;99.60;;;;;;6301800;22;20057;-64
2022/05/13 06:40:07;;;;;;;17.42;5.63;;;19.40;99.60;;;;;;6301698;22;20003;-64
2022/05/13 06:42:34;;;;;;;11.55;5.38;;;19.40;99.60;;;;;;6302230;22;20003;-64
2022/05/13 06:45:01;;;;;;;15.80;4.95;;;19.40;99.60;;;;;;6301868;22;20007;-64
2022/05/13 06:47:28;;;;;;;17.30;5.00;;;19.40;99.60;;;;;;6299475;22;20331;-63
2022/05/13 06:49:55;;;;;;;17.58;5.90;;;19.40;99.60;;;;;;6302221;22;20384;-63
2022/05/13 06:52:23;;;;;;;15.70;5.65;;;19.40;99.60;;;;;;6301724;22;20064;-63
2022/05/13 06:54:50;;;;;;;17.13;5.30;;;19.30;99.60;;;;;;6301884;22;20007;-64
2022/05/13 06:57:17;;;;;;;19.17;5.65;;;19.30;99.60;;;;;;6302035;22;20271;-64
2022/05/13 06:59:44;;;;;;;18.00;5.50;;;19.30;99.60;;;;;;6302009;22;20296;-64
2022/05/13 07:02:11;;;;;;;19.25;6.05;;;19.30;99.60;;;;;;6274640;22;20090;-64
2022/05/13 07:04:39;;;;;;;17.45;5.45;;;19.30;99.60;;;;;;6302245;22;20088;-63
2022/05/13 07:07:06;;;;;;;13.15;5.95;;;19.30;99.60;;;;;;6301842;22;20019;-63
2022/05/13 07:09:34;;;;;;;15.13;5.95;;;19.30;99.60;;;;;;6301640;22;20015;-64
2022/05/13 07:12:01;;;;;;;18.48;6.15;;;19.30;99.60;;;;;;6301626;22;20228;-64
2022/05/13 07:14:28;;;;;;;17.10;6.25;;;19.30;99.60;;;;;;6301778;22;20068;-63
2022/05/13 07:16:56;;;;;;;21.98;6.75;;;19.30;99.60;;;;;;6301699;22;20009;-63
2022/05/13 07:19:23;;;;;;;19.63;6.60;;;19.30;99.60;;;;;;6274286;22;20106;-63
2022/05/13 07:21:51;;;;;;;16.70;6.18;;;19.30;99.60;;;;;;6302688;22;20002;-64
2022/05/13 07:24:18;;;;;;;15.48;5.95;;;19.30;99.60;;;;;;6275754;22;20315;-64
2022/05/13 07:26:46;;;;;;;15.80;6.30;;;19.30;99.60;;;;;;6303754;22;20004;-63
2022/05/13 07:29:13;;;;;;;17.85;5.72;;;19.30;99.60;;;;;;6276476;22;20019;-64
2022/05/13 07:31:40;;;;;;;15.05;6.15;;;19.30;99.60;;;;;;6303490;22;20463;-64
2022/05/13 07:34:07;;;;;;;15.85;5.93;;;19.30;99.70;;;;;;6302971;22;20054;-64
2022/05/13 07:36:35;;;;;;;16.77;6.47;;;19.30;99.60;;;;;;6303362;22;20067;-64
2022/05/13 07:41:48;;;;;;;14.43;6.72;;;19.30;99.60;;;;;;6303375;22;20342;-64
2022/05/13 07:44:15;;;;;;;19.10;6.43;;;19.30;99.60;;;;;;6303126;22;20007;-64
2022/05/13 07:46:43;;;;;;;31.10;7.05;;;19.30;99.60;;;;;;6301169;22;20010;-64
2022/05/13 07:49:12;;;;;;;25.88;6.53;;;19.30;99.70;;;;;;6303288;22;20017;-64
2022/05/13 07:51:39;;;;;;;17.88;6.20;;;19.30;99.70;;;;;;6302636;22;20351;-64
2022/05/13 07:54:06;;;;;;;28.63;6.30;;;19.30;99.70;;;;;;6303327;22;20012;-64
2022/05/13 07:56:34;;;;;;;27.13;6.60;;;19.30;99.70;;;;;;6303371;22;20318;-64
2022/05/13 07:59:02;;;;;;;23.38;6.75;;;19.30;99.70;;;;;;6302819;22;20007;-63
2022/05/13 08:01:30;;;;;;;28.80;6.80;;;19.30;99.70;;;;;;6303441;22;20416;-64
2022/05/13 08:03:58;;;;;;;24.48;6.30;;;19.30;99.70;;;;;;6303278;22;20006;-62
2022/05/13 08:06:26;;;;;;;26.30;6.40;;;19.40;99.70;;;;;;6303275;22;20007;-64
2022/05/13 08:08:56;;;;;;;27.50;6.45;;;19.30;99.70;;;;;;6302667;22;20019;-64
2022/05/13 08:11:23;;;;;;;21.50;6.25;;;19.40;99.70;;;;;;6303023;22;20010;-64
2022/05/13 08:13:51;;;;;;;23.80;6.15;;;19.40;99.70;;;;;;6303630;22;20113;-63
2022/05/13 08:16:20;;;;;;;23.40;5.85;;;19.40;99.70;;;;;;6303290;22;20275;-63
2022/05/13 08:18:47;;;;;;;29.40;7.32;;;19.40;99.70;;;;;;6303494;22;20031;-63
2022/05/13 08:21:14;;;;;;;36.83;9.45;;;19.40;99.70;;;;;;6303403;22;20396;-63
2022/05/13 08:23:42;;;;;;;38.08;8.15;;;19.40;99.70;;;;;;6303269;22;20029;-63
2022/05/13 08:26:11;;;;;;;24.75;7.75;;;19.30;99.70;;;;;;6275594;22;20034;-63
2022/05/13 08:28:39;;;;;;;32.90;9.83;;;19.30;99.70;;;;;;6302446;22;20025;-64
2022/05/13 08:31:06;;;;;;;42.70;8.07;;;19.30;99.70;;;;;;6303105;22;20083;-64
2022/05/13 08:33:33;;;;;;;29.05;7.50;;;19.30;99.70;;;;;;6275881;22;20014;-64
2022/05/13 08:36:02;;;;;;;23.58;6.80;;;19.30;99.70;;;;;;6302470;22;19999;-64
2022/05/13 08:38:31;;;;;;;32.00;9.40;;;19.30;99.70;;;;;;6276134;22;20333;-64
2022/05/13 08:41:10;;;;;;;33.77;7.80;;;19.30;99.70;;;;;;6303391;22;20010;-65
2022/05/13 08:43:48;;;;;;;24.15;6.82;;;19.30;99.70;;;;;;6303546;22;20290;-64
2022/05/13 08:46:17;;;;;;;30.75;7.05;;;19.30;99.70;;;;;;6299943;22;20361;-65
2022/05/13 08:48:47;;;;;;;25.27;7.18;;;19.30;99.70;;;;;;6303093;22;20030;-64
2022/05/13 08:51:18;;;;;;;31.23;9.10;;;19.30;99.70;;;;;;6302996;22;20018;-64
2022/05/13 08:54:01;;;;;;;34.72;10.77;;;19.20;99.70;;;;;;6276237;22;20045;-64
2022/05/13 08:56:30;;;;;;;32.63;10.48;;;19.20;99.70;;;;;;6275766;22;20300;-64
2022/05/13 08:59:08;;;;;;;30.30;8.30;;;19.20;99.70;;;;;;6275663;22;20003;-64
2022/05/13 09:01:47;;;;;;;27.83;8.45;;;19.20;99.70;;;;;;6302271;22;20014;-64
2022/05/13 09:04:32;;;;;;;28.50;8.60;;;19.20;99.70;;;;;;6302543;22;20003;-64
2022/05/13 09:07:05;;;;;;;37.70;11.02;;;19.20;99.70;;;;;;6252721;22;20566;-64
2022/05/13 09:09:32;;;;;;;34.33;11.93;;;19.20;99.70;;;;;;6276402;22;20014;-64
2022/05/13 09:12:22;;;;;;;34.75;10.27;;;19.10;99.70;;;;;;6302854;22;20064;-63
2022/05/13 09:14:49;;;;;;;25.35;9.23;;;19.10;99.70;;;;;;6279083;22;20064;-63
2022/05/13 09:17:25;;;;;;;29.85;8.05;;;19.10;99.70;;;;;;6303264;22;20041;-63
2022/05/13 09:20:15;;;;;;;35.42;9.30;;;19.10;99.60;;;;;;6302801;22;20007;-63
2022/05/13 09:22:45;;;;;;;30.08;8.80;;;19.10;99.60;;;;;;6302597;22;20026;-63
2022/05/13 09:25:20;;;;;;;36.40;9.50;;;19.10;99.70;;;;;;6301978;22;20361;-63
2022/05/13 09:28:10;;;;;;;36.90;10.88;;;19.00;99.70;;;;;;6250771;22;20003;-63
2022/05/13 09:30:39;;;;;;;29.38;9.43;;;19.10;99.70;;;;;;6275737;22;20082;-64
2022/05/13 09:33:48;;;;;;;28.48;9.20;;;19.00;99.70;;;;;;6302324;22;20009;-64
2022/05/13 09:36:25;;;;;;;30.08;8.98;;;19.00;99.60;;;;;;6177545;23;20024;-63
2022/05/13 09:38:59;;;;;;;33.03;8.75;;;19.00;99.60;;;;;;6177664;23;20009;-63
2022/05/13 09:41:31;;;;;;;33.75;9.32;;;19.00;99.70;;;;;;6256486;22;20039;-63
2022/05/13 09:44:05;;;;;;;35.28;9.48;;;19.00;99.70;;;;;;6302392;22;20011;-62
2022/05/13 09:46:35;;;;;;;35.45;10.68;;;19.00;99.70;;;;;;6299615;22;20026;-65
2022/05/13 09:49:06;;;;;;;36.55;10.38;;;19.00;99.70;;;;;;6301960;22;20014;-64
2022/05/13 09:51:39;;;;;;;25.48;9.50;;;19.00;99.70;;;;;;6275112;22;20011;-64
2022/05/13 09:54:11;;;;;;;34.40;10.45;;;19.00;99.70;;;;;;6302494;22;20401;-64
2022/05/13 09:56:44;;;;;;;33.33;9.10;;;19.00;99.70;;;;;;6275100;22;20325;-64
2022/05/13 09:59:20;;;;;;;29.85;9.10;;;19.00;99.70;;;;;;6275275;22;20492;-64
2022/05/13 10:01:47;;;;;;;31.77;9.63;;;19.00;99.70;;;;;;6302185;22;20010;-65
2022/05/13 10:04:25;;;;;;;33.90;10.05;;;19.00;99.70;;;;;;6302449;22;20011;-64
2022/05/13 10:07:04;;;;;;;31.55;9.98;;;19.00;99.70;;;;;;6302049;22;20015;-64
2022/05/13 10:15:36;;;;;;;36.15;10.82;;;19.00;99.70;;;;;;6302267;22;20030;-63
2022/05/13 10:18:22;;;;;;;34.25;10.35;;;19.00;99.70;;;;;;6275150;22;20392;-64
2022/05/13 10:20:49;;;;;;;35.63;10.00;;;19.00;99.70;;;;;;6278209;22;20007;-64
2022/05/13 10:23:34;;;;;;;33.10;9.80;;;19.00;99.70;;;;;;6249488;22;20346;-63
2022/05/13 10:26:11;;;;;;;27.90;9.35;;;19.00;99.70;;;;;;6253163;22;20003;-64
2022/05/13 10:28:46;;;;;;;35.38;9.70;;;19.00;99.70;;;;;;6250155;22;20015;-64
2022/05/13 10:31:19;;;;;;;29.95;9.35;;;19.00;99.70;;;;;;6275181;22;20050;-64
2022/05/13 10:34:06;;;;;;;34.70;9.65;;;19.00;99.80;;;;;;6302117;22;20083;-64
2022/05/13 10:36:47;;;;;;;31.25;9.30;;;19.10;99.80;;;;;;6277907;22;19995;-63
2022/05/13 10:39:45;;;;;;;31.50;8.93;;;19.10;99.80;;;;;;6275354;22;20062;-63
2022/05/13 10:42:24;;;;;;;32.72;11.63;;;19.10;99.80;;;;;;6290020;22;20438;-64
2022/05/13 10:45:15;;;;;;;29.02;11.30;;;19.10;99.80;;;;;;6276911;22;20018;-63
2022/05/13 10:47:52;;;;;;;31.30;11.70;;;19.10;99.70;;;;;;6247455;22;20064;-64
2022/05/13 10:50:25;;;;;;;31.05;11.82;;;19.10;99.80;;;;;;6274604;22;20008;-65
2022/05/13 10:52:58;;;;;;;33.70;11.80;;;19.10;99.80;;;;;;6274869;22;20004;-64
2022/05/13 10:55:50;;;;;;;41.70;12.75;;;19.10;99.80;;;;;;6274408;22;20015;-64
2022/05/13 10:58:54;;;;;;;36.30;11.57;;;19.10;99.70;;;;;;6276816;22;20011;-65
2022/05/13 11:01:52;;;;;;;31.35;10.73;;;19.10;99.70;;;;;;6304339;22;20501;-65
2022/05/13 11:04:34;;;;;;;26.85;9.52;;;19.10;99.80;;;;;;6280412;22;20011;-64
2022/05/13 11:07:16;;;;;;;34.88;10.88;;;19.10;99.80;;;;;;6303287;22;20113;-63
2022/05/13 11:10:03;;;;;;;29.10;10.70;;;19.10;99.70;;;;;;6252049;22;20015;-65
2022/05/13 11:12:34;;;;;;;28.25;9.18;;;19.10;99.80;;;;;;6303834;22;20074;-64
2022/05/13 11:15:32;;;;;;;32.70;10.82;;;19.10;99.80;;;;;;6276286;22;20076;-65
2022/05/13 11:18:12;;;;;;;28.08;9.75;;;19.20;99.80;;;;;;6303257;22;20093;-64
2022/05/13 11:20:48;;;;;;;33.92;10.43;;;19.10;99.80;;;;;;6276444;22;19995;-64
2022/05/13 11:23:26;;;;;;;35.08;9.88;;;19.10;99.80;;;;;;6303739;22;20023;-63
2022/05/13 11:26:15;;;;;;;34.67;9.38;;;19.10;99.80;;;;;;6304171;22;20009;-63
2022/05/13 11:29:03;;;;;;;26.92;9.20;;;19.10;99.80;;;;;;6303733;22;20019;-63
2022/05/13 11:31:37;;;;;;;24.17;8.93;;;19.10;99.80;;;;;;6303980;22;20015;-63
2022/05/13 11:34:37;;;;;;;28.40;8.40;;;19.10;99.80;;;;;;6275396;22;20056;-63
2022/05/13 11:37:06;;;;;;;24.08;8.70;;;19.10;99.80;;;;;;6276452;22;20041;-63
2022/05/13 11:39:53;;;;;;;31.25;9.25;;;19.10;99.80;;;;;;6276570;22;20015;-63
2022/05/13 11:42:37;;;;;;;30.17;9.40;;;19.10;99.80;;;;;;6303411;22;20467;-64
2022/05/13 11:45:25;;;;;;;29.73;9.30;;;19.10;99.80;;;;;;6275537;22;20015;-64
2022/05/13 11:48:01;;;;;;;31.27;9.65;;;19.10;99.80;;;;;;6302625;22;20341;-63
2022/05/13 11:50:29;;;;;;;36.53;10.35;;;19.20;99.80;;;;;;6303497;22;20019;-63
2022/05/13 11:52:57;;;;;;;27.08;10.18;;;19.10;99.80;;;;;;6251147;22;20003;-64
2022/05/13 11:55:47;;;;;;;32.47;9.98;;;19.20;99.80;;;;;;6275830;22;20003;-65
2022/05/13 11:58:42;;;;;;;29.88;9.60;;;19.20;99.80;;;;;;6302638;22;20073;-65
2022/05/13 12:01:10;;;;;;;31.35;10.10;;;19.10;99.80;;;;;;6303448;22;20012;-64
2022/05/13 12:03:39;;;;;;;21.13;9.10;;;19.20;99.80;;;;;;6303002;22;20078;-64
2022/05/13 12:06:10;;;;;;;24.55;10.07;;;19.10;99.80;;;;;;6303245;22;20015;-65
2022/05/13 12:08:37;;;;;;;24.23;9.70;;;19.10;99.80;;;;;;6275722;22;20024;-65
2022/05/13 12:11:09;;;;;;;27.30;10.02;;;19.10;99.80;;;;;;6303382;22;20053;-65
2022/05/13 12:13:52;;;;;;;28.48;10.07;;;19.10;99.80;;;;;;6275830;22;20003;-65
2022/05/13 12:17:07;;;;;;;29.08;9.45;;;19.10;99.80;;;;;;6252304;22;20010;-64
2022/05/13 12:19:43;;;;;;;25.98;8.93;;;19.10;99.80;;;;;;6193393;22;20040;-64
2022/05/13 12:22:28;;;;;;;22.83;9.40;;;19.00;99.80;;;;;;6303085;22;20003;-65
2022/05/13 12:24:56;;;;;;;20.40;9.38;;;19.10;99.80;;;;;;6303067;22;20337;-64
2022/05/13 12:27:31;;;;;;;27.15;10.57;;;19.10;99.80;;;;;;6303279;22;20438;-64
2022/05/13 12:30:02;;;;;;;28.27;9.43;;;19.10;99.70;;;;;;6303187;22;20434;-64
2022/05/13 12:32:46;;;;;;;22.63;9.57;;;19.10;99.80;;;;;;6302281;22;20086;-64
2022/05/13 12:38:10;;;;;;;21.20;8.93;;;19.10;99.80;;;;;;6280375;22;20064;-65
2022/05/13 12:40:40;;;;;;;18.80;9.52;;;19.00;99.70;;;;;;6251660;22;19999;-64
2022/05/13 12:43:20;;;;;;;;;;;19.00;99.80;;;;;;6303414;22;20434;-65
2022/05/13 12:46:03;;;;;;;18.27;9.18;;;19.00;99.70;;;;;;6299882;22;19910;-64
2022/05/13 12:48:30;;;;;;;23.75;9.85;;;19.00;99.80;;;;;;6250308;22;20007;-65
2022/05/13 12:51:17;;;;;;;24.10;10.13;;;19.00;99.80;;;;;;6303654;22;20375;-65
2022/05/13 12:53:55;;;;;;;21.30;9.50;;;19.00;99.70;;;;;;6303235;22;19995;-65
2022/05/13 12:56:37;;;;;;;24.23;10.00;;;19.00;99.80;;;;;;6302261;22;20086;-64
2022/05/13 12:59:17;;;;;;;22.05;9.30;;;19.00;99.80;;;;;;6254268;22;20007;-64
2022/05/13 13:01:47;;;;;;;21.80;9.75;;;19.00;99.70;;;;;;6278896;22;20085;-65
2022/05/13 13:04:17;;;;;;;28.10;11.40;;;19.00;99.70;;;;;;6278623;22;20319;-65
2022/05/13 13:06:48;;;;;;;25.27;10.48;;;19.00;99.80;;;;;;6253841;22;19994;-64
2022/05/13 13:09:32;;;;;;;26.42;10.45;;;19.00;99.70;;;;;;6305949;22;20034;-65
2022/05/13 13:12:21;;;;;;;21.13;10.10;;;19.00;99.70;;;;;;6306333;22;20021;-65
2022/05/13 13:15:09;;;;;;;21.85;9.35;;;19.00;99.70;;;;;;6282613;22;19999;-64
2022/05/13 13:17:58;;;;;;;21.27;9.20;;;19.00;99.70;;;;;;6278706;22;20029;-65
2022/05/13 13:20:27;;;;;;;25.60;9.73;;;19.00;99.70;;;;;;6305171;22;20307;-65
2022/05/13 13:23:03;;;;;;;26.83;9.82;;;18.90;99.70;;;;;;6279479;22;20013;-65
2022/05/13 13:25:42;;;;;;;25.05;10.20;;;18.90;99.70;;;;;;6279586;22;19999;-65